sensor_id;sensor_type;location;lat;lon;timestamp;temperature;humidity
34574;DHT22;20809;49.594;8.734;2022-12-13T00:02:05;-4.20;99.90
34574;DHT22;20809;49.594;8.734;2022-12-13T00:05:07;-4.20;99.90
34574;DHT22;20809;49.594;8.734;2022-12-13T00:08:07;-4.30;99.90
34574;DHT22;20809;49.594;8.734;2022-12-13T00:11:09;-4.30;99.90
34574;DHT22;20809;49.594;8.734;2022-12-13T00:14:11;-4.20;99.90
34574;DHT22;20809;49.594;8.734;2022-12-13T00:17:13;-4.30;99.90
34574;DHT22;20809;49.594;8.734;2022-12-13T00:23:17;-4.40;99.90
34574;DHT22;20809;49.594;8.734;2022-12-13T00:26:18;-4.50;99.90
34574;DHT22;20809;49.594;8.734;2022-12-13T00:29:19;-4.50;99.90
34574;DHT22;20809;49.594;8.734;2022-12-13T00:32:19;-4.60;99.90
34574;DHT22;20809;49.594;8.734;2022-12-13T00:35:20;-4.70;99.90
34574;DHT22;20809;49.594;8.734;2022-12-13T00:38:21;-4.80;99.90
34574;DHT22;20809;49.594;8.734;2022-12-13T00:41:22;-4.90;99.90
34574;DHT22;20809;49.594;8.734;2022-12-13T00:44:23;-5.00;99.90
34574;DHT22;20809;49.594;8.734;2022-12-13T00:47:23;-5.00;99.90
34574;DHT22;20809;49.594;8.734;2022-12-13T00:50:24;-5.00;99.90
34574;DHT22;20809;49.594;8.734;2022-12-13T00:53:25;-5.00;99.90
34574;DHT22;20809;49.594;8.734;2022-12-13T00:56:26;-5.00;99.90
34574;DHT22;20809;49.594;8.734;2022-12-13T00:59:27;-4.90;99.90
34574;DHT22;20809;49.594;8.734;2022-12-13T01:02:28;-4.80;99.90
34574;DHT22;20809;49.594;8.734;2022-12-13T01:05:28;-4.80;99.90
34574;DHT22;20809;49.594;8.734;2022-12-13T01:08:29;-4.70;99.90
34574;DHT22;20809;49.594;8.734;2022-12-13T01:11:29;-4.70;99.90
34574;DHT22;20809;49.594;8.734;2022-12-13T01:14:30;-4.70;99.90
34574;DHT22;20809;49.594;8.734;2022-12-13T01:17:34;-4.80;99.90
34574;DHT22;20809;49.594;8.734;2022-12-13T01:20:35;-4.90;99.90
34574;DHT22;20809;49.594;8.734;2022-12-13T01:23:36;-4.90;99.90
34574;DHT22;20809;49.594;8.734;2022-12-13T01:26:37;-4.80;99.90
34574;DHT22;20809;49.594;8.734;2022-12-13T01:29:38;-4.90;99.90
34574;DHT22;20809;49.594;8.734;2022-12-13T01:32:38;-4.90;99.90
34574;DHT22;20809;49.594;8.734;2022-12-13T01:35:39;-4.90;99.90
34574;DHT22;20809;49.594;8.734;2022-12-13T01:38:39;-4.90;99.90
34574;DHT22;20809;49.594;8.734;2022-12-13T01:41:40;-4.90;99.90
34574;DHT22;20809;49.594;8.734;2022-12-13T01:45:00;-4.70;99.90
34574;DHT22;20809;49.594;8.734;2022-12-13T01:48:04;-4.70;99.90
34574;DHT22;20809;49.594;8.734;2022-12-13T01:51:08;-4.80;99.90
34574;DHT22;20809;49.594;8.734;2022-12-13T01:54:15;-4.80;99.90
34574;DHT22;20809;49.594;8.734;2022-12-13T01:59:14;-5.00;99.90
34574;DHT22;20809;49.594;8.734;2022-12-13T02:02:16;-5.00;99.90
34574;DHT22;20809;49.594;8.734;2022-12-13T02:05:25;-5.10;99.90
34574;DHT22;20809;49.594;8.734;2022-12-13T02:08:27;-5.30;99.90
34574;DHT22;20809;49.594;8.734;2022-12-13T02:11:29;-5.20;99.90
34574;DHT22;20809;49.594;8.734;2022-12-13T02:14:30;-5.20;99.90
34574;DHT22;20809;49.594;8.734;2022-12-13T02:17:55;-5.10;99.90
34574;DHT22;20809;49.594;8.734;2022-12-13T02:30:43;-5.10;99.90
34574;DHT22;20809;49.594;8.734;2022-12-13T02:37:06;-5.10;99.90
34574;DHT22;20809;49.594;8.734;2022-12-13T02:40:28;-5.10;99.90
34574;DHT22;20809;49.594;8.734;2022-12-13T02:43:39;-5.00;99.90
34574;DHT22;20809;49.594;8.734;2022-12-13T02:46:47;-5.00;99.90
34574;DHT22;20809;49.594;8.734;2022-12-13T02:49:53;-5.00;99.90
34574;DHT22;20809;49.594;8.734;2022-12-13T02:52:55;-5.10;99.90
34574;DHT22;20809;49.594;8.734;2022-12-13T02:55:56;-5.10;99.90
34574;DHT22;20809;49.594;8.734;2022-12-13T02:59:09;-5.20;99.90
34574;DHT22;20809;49.594;8.734;2022-12-13T03:02:27;-5.30;99.90
34574;DHT22;20809;49.594;8.734;2022-12-13T03:05:38;-5.50;99.90
34574;DHT22;20809;49.594;8.734;2022-12-13T03:15:57;-5.70;99.90
34574;DHT22;20809;49.594;8.734;2022-12-13T03:19:00;-5.60;99.90
34574;DHT22;20809;49.594;8.734;2022-12-13T03:22:04;-5.70;99.90
34574;DHT22;20809;49.594;8.734;2022-12-13T03:25:05;-5.80;99.90
34574;DHT22;20809;49.594;8.734;2022-12-13T03:28:06;-5.70;99.90
34574;DHT22;20809;49.594;8.734;2022-12-13T03:31:07;-5.70;99.90
34574;DHT22;20809;49.594;8.734;2022-12-13T03:34:08;-5.60;99.90
34574;DHT22;20809;49.594;8.734;2022-12-13T03:37:09;-5.60;99.90
34574;DHT22;20809;49.594;8.734;2022-12-13T03:40:10;-5.60;99.90
34574;DHT22;20809;49.594;8.734;2022-12-13T03:43:11;-5.60;99.90
34574;DHT22;20809;49.594;8.734;2022-12-13T03:46:11;-5.60;99.90
34574;DHT22;20809;49.594;8.734;2022-12-13T03:49:12;-5.60;99.90
34574;DHT22;20809;49.594;8.734;2022-12-13T03:52:12;-5.70;99.90
34574;DHT22;20809;49.594;8.734;2022-12-13T03:55:13;-5.80;99.90
34574;DHT22;20809;49.594;8.734;2022-12-13T03:58:14;-5.90;99.90
34574;DHT22;20809;49.594;8.734;2022-12-13T04:01:15;-5.90;99.90
34574;DHT22;20809;49.594;8.734;2022-12-13T04:04:16;-6.00;99.90
34574;DHT22;20809;49.594;8.734;2022-12-13T04:07:17;-5.90;99.90
34574;DHT22;20809;49.594;8.734;2022-12-13T04:10:17;-5.90;99.90
34574;DHT22;20809;49.594;8.734;2022-12-13T04:13:18;-5.90;99.90
34574;DHT22;20809;49.594;8.734;2022-12-13T04:16:33;-5.90;99.90
34574;DHT22;20809;49.594;8.734;2022-12-13T04:19:34;-6.00;99.90
34574;DHT22;20809;49.594;8.734;2022-12-13T04:22:35;-6.00;99.90
34574;DHT22;20809;49.594;8.734;2022-12-13T04:25:35;-6.10;99.90
34574;DHT22;20809;49.594;8.734;2022-12-13T04:28:36;-6.10;99.90
34574;DHT22;20809;49.594;8.734;2022-12-13T04:31:37;-6.10;99.90
34574;DHT22;20809;49.594;8.734;2022-12-13T04:34:38;-6.00;99.90
34574;DHT22;20809;49.594;8.734;2022-12-13T04:37:38;-6.00;99.90
34574;DHT22;20809;49.594;8.734;2022-12-13T04:40:39;-6.00;99.90
34574;DHT22;20809;49.594;8.734;2022-12-13T04:43:39;-6.00;99.90
34574;DHT22;20809;49.594;8.734;2022-12-13T04:46:40;-6.10;99.90
34574;DHT22;20809;49.594;8.734;2022-12-13T04:49:40;-6.00;99.90
34574;DHT22;20809;49.594;8.734;2022-12-13T04:52:41;-6.00;99.90
34574;DHT22;20809;49.594;8.734;2022-12-13T04:55:42;-6.10;99.90
34574;DHT22;20809;49.594;8.734;2022-12-13T04:58:42;-6.10;99.90
34574;DHT22;20809;49.594;8.734;2022-12-13T05:01:43;-6.20;99.90
34574;DHT22;20809;49.594;8.734;2022-12-13T05:04:44;-6.20;99.90
34574;DHT22;20809;49.594;8.734;2022-12-13T05:07:45;-6.20;99.90
34574;DHT22;20809;49.594;8.734;2022-12-13T05:10:46;-6.20;99.90
34574;DHT22;20809;49.594;8.734;2022-12-13T05:13:46;-6.30;99.90
34574;DHT22;20809;49.594;8.734;2022-12-13T05:16:47;-6.30;99.90
34574;DHT22;20809;49.594;8.734;2022-12-13T05:19:48;-6.30;99.90
34574;DHT22;20809;49.594;8.734;2022-12-13T05:22:48;-6.30;99.90
34574;DHT22;20809;49.594;8.734;2022-12-13T05:25:52;-6.30;99.90
34574;DHT22;20809;49.594;8.734;2022-12-13T05:28:55;-6.40;99.90
34574;DHT22;20809;49.594;8.734;2022-12-13T05:31:55;-6.50;99.90
34574;DHT22;20809;49.594;8.734;2022-12-13T05:34:56;-6.50;99.90
34574;DHT22;20809;49.594;8.734;2022-12-13T05:37:56;-6.60;99.90
34574;DHT22;20809;49.594;8.734;2022-12-13T05:40:57;-6.60;99.90
34574;DHT22;20809;49.594;8.734;2022-12-13T05:43:58;-6.60;99.90
34574;DHT22;20809;49.594;8.734;2022-12-13T05:46:58;-6.40;99.90
34574;DHT22;20809;49.594;8.734;2022-12-13T05:49:59;-6.20;99.90
34574;DHT22;20809;49.594;8.734;2022-12-13T05:53:00;-6.10;99.90
34574;DHT22;20809;49.594;8.734;2022-12-13T05:56:01;-6.20;99.90
34574;DHT22;20809;49.594;8.734;2022-12-13T05:59:01;-6.30;99.90
34574;DHT22;20809;49.594;8.734;2022-12-13T06:02:02;-6.40;99.90
34574;DHT22;20809;49.594;8.734;2022-12-13T06:05:04;-6.40;99.90
34574;DHT22;20809;49.594;8.734;2022-12-13T06:08:05;-6.40;99.90
34574;DHT22;20809;49.594;8.734;2022-12-13T06:11:06;-6.40;99.90
34574;DHT22;20809;49.594;8.734;2022-12-13T06:14:07;-6.40;99.90
34574;DHT22;20809;49.594;8.734;2022-12-13T06:17:08;-6.50;99.90
34574;DHT22;20809;49.594;8.734;2022-12-13T06:20:09;-6.50;99.90
34574;DHT22;20809;49.594;8.734;2022-12-13T06:23:09;-6.50;99.90
34574;DHT22;20809;49.594;8.734;2022-12-13T06:26:10;-6.40;99.90
34574;DHT22;20809;49.594;8.734;2022-12-13T06:29:12;-6.40;99.90
34574;DHT22;20809;49.594;8.734;2022-12-13T06:32:13;-6.30;99.90
34574;DHT22;20809;49.594;8.734;2022-12-13T06:35:13;-6.30;99.90
34574;DHT22;20809;49.594;8.734;2022-12-13T06:38:14;-6.30;99.90
34574;DHT22;20809;49.594;8.734;2022-12-13T06:41:15;-6.30;99.90
34574;DHT22;20809;49.594;8.734;2022-12-13T06:44:16;-6.30;99.90
34574;DHT22;20809;49.594;8.734;2022-12-13T06:47:16;-6.20;99.90
34574;DHT22;20809;49.594;8.734;2022-12-13T06:50:17;-6.20;99.90
34574;DHT22;20809;49.594;8.734;2022-12-13T06:53:18;-6.20;99.90
34574;DHT22;20809;49.594;8.734;2022-12-13T06:56:19;-6.00;99.90
34574;DHT22;20809;49.594;8.734;2022-12-13T06:59:19;-6.00;99.90
34574;DHT22;20809;49.594;8.734;2022-12-13T07:02:20;-5.90;99.90
34574;DHT22;20809;49.594;8.734;2022-12-13T07:05:21;-5.70;99.90
34574;DHT22;20809;49.594;8.734;2022-12-13T07:08:21;-5.70;99.90
34574;DHT22;20809;49.594;8.734;2022-12-13T07:11:23;-5.70;99.90
34574;DHT22;20809;49.594;8.734;2022-12-13T07:14:24;-5.80;99.90
34574;DHT22;20809;49.594;8.734;2022-12-13T07:17:25;-5.90;99.90
34574;DHT22;20809;49.594;8.734;2022-12-13T07:20:25;-5.90;99.90
34574;DHT22;20809;49.594;8.734;2022-12-13T07:23:26;-5.80;99.90
34574;DHT22;20809;49.594;8.734;2022-12-13T07:26:27;-5.80;99.90
34574;DHT22;20809;49.594;8.734;2022-12-13T07:29:27;-5.90;99.90
34574;DHT22;20809;49.594;8.734;2022-12-13T07:32:28;-6.00;99.90
34574;DHT22;20809;49.594;8.734;2022-12-13T07:35:29;-6.10;99.90
34574;DHT22;20809;49.594;8.734;2022-12-13T07:38:30;-6.10;99.90
34574;DHT22;20809;49.594;8.734;2022-12-13T07:41:31;-6.10;99.90
34574;DHT22;20809;49.594;8.734;2022-12-13T07:44:32;-6.20;99.90
34574;DHT22;20809;49.594;8.734;2022-12-13T07:47:32;-6.20;99.90
34574;DHT22;20809;49.594;8.734;2022-12-13T07:50:33;-6.20;99.90
34574;DHT22;20809;49.594;8.734;2022-12-13T07:53:33;-6.00;99.90
34574;DHT22;20809;49.594;8.734;2022-12-13T07:56:35;-5.90;99.90
34574;DHT22;20809;49.594;8.734;2022-12-13T07:59:35;-5.80;99.90
34574;DHT22;20809;49.594;8.734;2022-12-13T08:02:36;-5.80;99.90
34574;DHT22;20809;49.594;8.734;2022-12-13T08:05:37;-5.80;99.90
34574;DHT22;20809;49.594;8.734;2022-12-13T08:08:38;-5.80;99.90
34574;DHT22;20809;49.594;8.734;2022-12-13T08:11:38;-5.80;99.90
34574;DHT22;20809;49.594;8.734;2022-12-13T08:14:39;-5.80;99.90
34574;DHT22;20809;49.594;8.734;2022-12-13T08:17:39;-5.70;99.90
34574;DHT22;20809;49.594;8.734;2022-12-13T08:20:40;-5.60;99.90
34574;DHT22;20809;49.594;8.734;2022-12-13T08:23:41;-5.50;99.90
34574;DHT22;20809;49.594;8.734;2022-12-13T08:26:42;-5.40;99.90
34574;DHT22;20809;49.594;8.734;2022-12-13T08:29:42;-5.40;99.90
34574;DHT22;20809;49.594;8.734;2022-12-13T08:32:43;-5.40;99.90
34574;DHT22;20809;49.594;8.734;2022-12-13T08:35:44;-5.40;99.90
34574;DHT22;20809;49.594;8.734;2022-12-13T08:38:45;-5.30;99.90
34574;DHT22;20809;49.594;8.734;2022-12-13T08:41:46;-5.10;99.90
34574;DHT22;20809;49.594;8.734;2022-12-13T08:44:51;-5.00;99.90
34574;DHT22;20809;49.594;8.734;2022-12-13T08:47:52;-4.80;99.90
34574;DHT22;20809;49.594;8.734;2022-12-13T08:50:53;-4.70;99.90
34574;DHT22;20809;49.594;8.734;2022-12-13T08:53:54;-4.60;99.90
34574;DHT22;20809;49.594;8.734;2022-12-13T08:56:54;-4.40;99.90
34574;DHT22;20809;49.594;8.734;2022-12-13T08:59:55;-4.30;99.90
34574;DHT22;20809;49.594;8.734;2022-12-13T09:02:55;-4.00;99.90
34574;DHT22;20809;49.594;8.734;2022-12-13T09:05:57;-3.70;99.90
34574;DHT22;20809;49.594;8.734;2022-12-13T09:09:04;-3.50;99.90
34574;DHT22;20809;49.594;8.734;2022-12-13T09:12:05;-3.50;99.90
34574;DHT22;20809;49.594;8.734;2022-12-13T09:15:06;-3.60;99.90
34574;DHT22;20809;49.594;8.734;2022-12-13T09:18:06;-3.60;99.90
34574;DHT22;20809;49.594;8.734;2022-12-13T09:21:09;-3.60;99.90
34574;DHT22;20809;49.594;8.734;2022-12-13T09:24:10;-3.60;99.90
34574;DHT22;20809;49.594;8.734;2022-12-13T09:27:10;-3.60;99.90
34574;DHT22;20809;49.594;8.734;2022-12-13T09:30:11;-3.60;99.90
34574;DHT22;20809;49.594;8.734;2022-12-13T09:33:15;-3.50;99.90
34574;DHT22;20809;49.594;8.734;2022-12-13T09:36:18;-3.40;99.90
34574;DHT22;20809;49.594;8.734;2022-12-13T09:39:19;-3.30;99.90
34574;DHT22;20809;49.594;8.734;2022-12-13T09:42:22;-3.30;99.90
34574;DHT22;20809;49.594;8.734;2022-12-13T09:45:23;-3.30;99.90
34574;DHT22;20809;49.594;8.734;2022-12-13T09:48:24;-3.20;99.90
34574;DHT22;20809;49.594;8.734;2022-12-13T09:51:25;-3.00;99.90
34574;DHT22;20809;49.594;8.734;2022-12-13T09:54:26;-2.90;99.90
34574;DHT22;20809;49.594;8.734;2022-12-13T09:57:30;-2.80;99.90
34574;DHT22;20809;49.594;8.734;2022-12-13T10:00:35;-2.70;99.90
34574;DHT22;20809;49.594;8.734;2022-12-13T10:03:45;-2.50;99.90
34574;DHT22;20809;49.594;8.734;2022-12-13T10:06:49;-2.30;99.90
34574;DHT22;20809;49.594;8.734;2022-12-13T10:09:58;-2.20;99.90
34574;DHT22;20809;49.594;8.734;2022-12-13T10:19:39;-2.00;99.90
34574;DHT22;20809;49.594;8.734;2022-12-13T10:22:40;-1.90;99.90
34574;DHT22;20809;49.594;8.734;2022-12-13T10:25:52;-1.90;99.90
34574;DHT22;20809;49.594;8.734;2022-12-13T10:29:02;-1.70;99.90
34574;DHT22;20809;49.594;8.734;2022-12-13T10:32:11;-1.70;99.90
34574;DHT22;20809;49.594;8.734;2022-12-13T10:38:29;-1.50;99.90
34574;DHT22;20809;49.594;8.734;2022-12-13T10:41:36;-1.40;99.90
34574;DHT22;20809;49.594;8.734;2022-12-13T10:44:37;-1.30;99.90
34574;DHT22;20809;49.594;8.734;2022-12-13T10:47:43;-1.10;99.90
34574;DHT22;20809;49.594;8.734;2022-12-13T10:50:55;-0.90;99.90
34574;DHT22;20809;49.594;8.734;2022-12-13T10:53:59;-0.80;99.90
34574;DHT22;20809;49.594;8.734;2022-12-13T10:57:00;-0.80;99.90
34574;DHT22;20809;49.594;8.734;2022-12-13T11:00:01;-0.70;99.90
34574;DHT22;20809;49.594;8.734;2022-12-13T11:03:02;-0.70;99.90
34574;DHT22;20809;49.594;8.734;2022-12-13T11:06:14;-0.60;99.90
34574;DHT22;20809;49.594;8.734;2022-12-13T11:09:32;-0.60;99.90
34574;DHT22;20809;49.594;8.734;2022-12-13T11:12:33;-0.60;99.90
34574;DHT22;20809;49.594;8.734;2022-12-13T11:15:37;-0.60;99.90
34574;DHT22;20809;49.594;8.734;2022-12-13T11:18:38;-0.60;99.90
34574;DHT22;20809;49.594;8.734;2022-12-13T11:21:46;-0.50;99.90
34574;DHT22;20809;49.594;8.734;2022-12-13T11:24:56;-0.50;99.90
34574;DHT22;20809;49.594;8.734;2022-12-13T11:31:15;-0.30;99.90
34574;DHT22;20809;49.594;8.734;2022-12-13T11:34:47;-0.20;99.90
34574;DHT22;20809;49.594;8.734;2022-12-13T11:38:24;-0.30;99.90
34574;DHT22;20809;49.594;8.734;2022-12-13T11:41:35;-0.30;99.90
34574;DHT22;20809;49.594;8.734;2022-12-13T11:51:08;-0.20;99.90
34574;DHT22;20809;49.594;8.734;2022-12-13T11:54:23;-0.10;99.90
34574;DHT22;20809;49.594;8.734;2022-12-13T11:57:53;-0.10;99.90
34574;DHT22;20809;49.594;8.734;2022-12-13T12:01:13;0.10;99.90
34574;DHT22;20809;49.594;8.734;2022-12-13T12:04:34;0.10;99.90
34574;DHT22;20809;49.594;8.734;2022-12-13T12:07:40;0.10;99.90
34574;DHT22;20809;49.594;8.734;2022-12-13T12:10:45;0.10;99.90
34574;DHT22;20809;49.594;8.734;2022-12-13T12:13:57;0.20;99.90
34574;DHT22;20809;49.594;8.734;2022-12-13T12:16:59;0.20;99.90
34574;DHT22;20809;49.594;8.734;2022-12-13T12:20:00;0.10;99.90
34574;DHT22;20809;49.594;8.734;2022-12-13T12:30:12;0.10;99.90
34574;DHT22;20809;49.594;8.734;2022-12-13T12:33:31;0.00;99.90
34574;DHT22;20809;49.594;8.734;2022-12-13T12:53:40;0.10;99.90
34574;DHT22;20809;49.594;8.734;2022-12-13T13:03:37;0.40;99.90
34574;DHT22;20809;49.594;8.734;2022-12-13T13:06:50;0.40;99.90
34574;DHT22;20809;49.594;8.734;2022-12-13T13:09:49;0.50;99.90
34574;DHT22;20809;49.594;8.734;2022-12-13T13:12:50;0.40;99.90
34574;DHT22;20809;49.594;8.734;2022-12-13T13:15:55;0.30;99.90
34574;DHT22;20809;49.594;8.734;2022-12-13T13:22:36;0.20;99.90
34574;DHT22;20809;49.594;8.734;2022-12-13T13:25:37;0.30;99.90
34574;DHT22;20809;49.594;8.734;2022-12-13T13:28:38;0.30;99.90
34574;DHT22;20809;49.594;8.734;2022-12-13T13:38:48;0.30;99.90
34574;DHT22;20809;49.594;8.734;2022-12-13T13:45:21;0.20;99.90
34574;DHT22;20809;49.594;8.734;2022-12-13T14:29:16;-0.90;99.90
34574;DHT22;20809;49.594;8.734;2022-12-13T14:35:23;-1.00;99.90
34574;DHT22;20809;49.594;8.734;2022-12-13T14:38:28;-1.20;99.90
34574;DHT22;20809;49.594;8.734;2022-12-13T14:41:30;-1.30;99.90
34574;DHT22;20809;49.594;8.734;2022-12-13T14:44:32;-1.50;99.90
34574;DHT22;20809;49.594;8.734;2022-12-13T14:47:35;-1.60;99.90
34574;DHT22;20809;49.594;8.734;2022-12-13T14:50:40;-1.70;99.90
34574;DHT22;20809;49.594;8.734;2022-12-13T14:53:43;-1.80;99.90
34574;DHT22;20809;49.594;8.734;2022-12-13T14:56:54;-1.80;99.90
34574;DHT22;20809;49.594;8.734;2022-12-13T14:59:58;-1.80;99.90
34574;DHT22;20809;49.594;8.734;2022-12-13T15:03:02;-1.90;99.90
34574;DHT22;20809;49.594;8.734;2022-12-13T15:06:03;-1.80;99.90
34574;DHT22;20809;49.594;8.734;2022-12-13T15:09:04;-1.70;99.90
34574;DHT22;20809;49.594;8.734;2022-12-13T15:12:14;-1.70;99.90
34574;DHT22;20809;49.594;8.734;2022-12-13T15:18:28;-1.70;99.90
34574;DHT22;20809;49.594;8.734;2022-12-13T15:21:29;-1.70;99.90
34574;DHT22;20809;49.594;8.734;2022-12-13T15:24:32;-1.70;99.90
34574;DHT22;20809;49.594;8.734;2022-12-13T15:27:33;-1.80;99.90
34574;DHT22;20809;49.594;8.734;2022-12-13T15:30:34;-1.80;99.90
34574;DHT22;20809;49.594;8.734;2022-12-13T15:33:35;-1.80;99.90
34574;DHT22;20809;49.594;8.734;2022-12-13T15:36:37;-1.90;99.90
34574;DHT22;20809;49.594;8.734;2022-12-13T15:39:39;-1.90;99.90
34574;DHT22;20809;49.594;8.734;2022-12-13T15:42:44;-2.00;99.90
34574;DHT22;20809;49.594;8.734;2022-12-13T15:45:48;-2.00;99.90
34574;DHT22;20809;49.594;8.734;2022-12-13T15:48:49;-2.00;99.90
34574;DHT22;20809;49.594;8.734;2022-12-13T15:52:01;-2.00;99.90
34574;DHT22;20809;49.594;8.734;2022-12-13T15:58:23;-2.20;99.90
34574;DHT22;20809;49.594;8.734;2022-12-13T16:01:30;-2.30;99.90
34574;DHT22;20809;49.594;8.734;2022-12-13T16:04:32;-2.30;99.90
34574;DHT22;20809;49.594;8.734;2022-12-13T16:07:33;-2.30;99.90
34574;DHT22;20809;49.594;8.734;2022-12-13T16:10:46;-2.40;99.90
34574;DHT22;20809;49.594;8.734;2022-12-13T16:13:47;-2.40;99.90
34574;DHT22;20809;49.594;8.734;2022-12-13T16:16:48;-2.50;99.90
34574;DHT22;20809;49.594;8.734;2022-12-13T16:19:49;-2.50;99.90
34574;DHT22;20809;49.594;8.734;2022-12-13T16:22:49;-2.50;99.90
34574;DHT22;20809;49.594;8.734;2022-12-13T16:25:50;-2.60;99.90
34574;DHT22;20809;49.594;8.734;2022-12-13T16:28:52;-2.70;99.90
34574;DHT22;20809;49.594;8.734;2022-12-13T16:31:53;-2.60;99.90
34574;DHT22;20809;49.594;8.734;2022-12-13T16:34:56;-2.60;99.90
34574;DHT22;20809;49.594;8.734;2022-12-13T16:37:57;-2.60;99.90
34574;DHT22;20809;49.594;8.734;2022-12-13T16:40:59;-2.60;99.90
34574;DHT22;20809;49.594;8.734;2022-12-13T16:44:01;-2.60;99.90
34574;DHT22;20809;49.594;8.734;2022-12-13T16:47:06;-2.60;99.90
34574;DHT22;20809;49.594;8.734;2022-12-13T16:50:16;-2.60;99.90
34574;DHT22;20809;49.594;8.734;2022-12-13T16:53:17;-2.60;99.90
34574;DHT22;20809;49.594;8.734;2022-12-13T16:56:18;-2.60;99.90
34574;DHT22;20809;49.594;8.734;2022-12-13T16:59:22;-2.60;99.90
34574;DHT22;20809;49.594;8.734;2022-12-13T17:02:24;-2.60;99.90
34574;DHT22;20809;49.594;8.734;2022-12-13T17:05:26;-2.70;99.90
34574;DHT22;20809;49.594;8.734;2022-12-13T17:08:27;-2.70;99.90
34574;DHT22;20809;49.594;8.734;2022-12-13T17:11:31;-2.70;99.90
34574;DHT22;20809;49.594;8.734;2022-12-13T17:14:31;-2.70;99.90
34574;DHT22;20809;49.594;8.734;2022-12-13T17:17:32;-2.70;99.90
34574;DHT22;20809;49.594;8.734;2022-12-13T17:20:33;-2.70;99.90
34574;DHT22;20809;49.594;8.734;2022-12-13T17:23:34;-2.70;99.90
34574;DHT22;20809;49.594;8.734;2022-12-13T17:26:34;-2.70;99.90
34574;DHT22;20809;49.594;8.734;2022-12-13T17:29:35;-2.60;99.90
34574;DHT22;20809;49.594;8.734;2022-12-13T17:32:36;-2.60;99.90
34574;DHT22;20809;49.594;8.734;2022-12-13T17:35:38;-2.60;99.90
34574;DHT22;20809;49.594;8.734;2022-12-13T17:38:46;-2.60;99.90
34574;DHT22;20809;49.594;8.734;2022-12-13T17:41:47;-2.60;99.90
34574;DHT22;20809;49.594;8.734;2022-12-13T17:44:47;-2.60;99.90
34574;DHT22;20809;49.594;8.734;2022-12-13T17:47:48;-2.50;99.90
34574;DHT22;20809;49.594;8.734;2022-12-13T17:50:52;-2.50;99.90
34574;DHT22;20809;49.594;8.734;2022-12-13T17:53:52;-2.50;99.90
34574;DHT22;20809;49.594;8.734;2022-12-13T17:56:53;-2.50;99.90
34574;DHT22;20809;49.594;8.734;2022-12-13T17:59:54;-2.50;99.90
34574;DHT22;20809;49.594;8.734;2022-12-13T18:02:55;-2.40;99.90
34574;DHT22;20809;49.594;8.734;2022-12-13T18:05:57;-2.40;99.90
34574;DHT22;20809;49.594;8.734;2022-12-13T18:08:58;-2.40;99.90
34574;DHT22;20809;49.594;8.734;2022-12-13T18:11:58;-2.40;99.90
34574;DHT22;20809;49.594;8.734;2022-12-13T18:14:59;-2.30;99.90
34574;DHT22;20809;49.594;8.734;2022-12-13T18:17:59;-2.30;99.90
34574;DHT22;20809;49.594;8.734;2022-12-13T18:21:08;-2.30;99.90
34574;DHT22;20809;49.594;8.734;2022-12-13T18:24:09;-2.30;99.90
34574;DHT22;20809;49.594;8.734;2022-12-13T18:27:10;-2.30;99.90
34574;DHT22;20809;49.594;8.734;2022-12-13T18:30:12;-2.30;99.90
34574;DHT22;20809;49.594;8.734;2022-12-13T18:33:13;-2.20;99.90
34574;DHT22;20809;49.594;8.734;2022-12-13T18:36:13;-2.20;99.90
34574;DHT22;20809;49.594;8.734;2022-12-13T18:39:15;-2.20;99.90
34574;DHT22;20809;49.594;8.734;2022-12-13T18:42:16;-2.20;99.90
34574;DHT22;20809;49.594;8.734;2022-12-13T18:45:17;-2.10;99.90
34574;DHT22;20809;49.594;8.734;2022-12-13T18:48:19;-2.10;99.90
34574;DHT22;20809;49.594;8.734;2022-12-13T18:51:20;-2.10;99.90
34574;DHT22;20809;49.594;8.734;2022-12-13T18:54:20;-2.00;99.90
34574;DHT22;20809;49.594;8.734;2022-12-13T18:57:21;-2.00;99.90
34574;DHT22;20809;49.594;8.734;2022-12-13T19:00:22;-1.90;99.90
34574;DHT22;20809;49.594;8.734;2022-12-13T19:03:26;-2.00;99.90
34574;DHT22;20809;49.594;8.734;2022-12-13T19:06:27;-1.90;99.90
34574;DHT22;20809;49.594;8.734;2022-12-13T19:09:28;-1.90;99.90
34574;DHT22;20809;49.594;8.734;2022-12-13T19:12:28;-1.90;99.90
34574;DHT22;20809;49.594;8.734;2022-12-13T19:15:31;-1.90;99.90
34574;DHT22;20809;49.594;8.734;2022-12-13T19:18:32;-1.90;99.90
34574;DHT22;20809;49.594;8.734;2022-12-13T19:21:32;-1.80;99.90
34574;DHT22;20809;49.594;8.734;2022-12-13T19:24:33;-1.80;99.90
34574;DHT22;20809;49.594;8.734;2022-12-13T19:27:34;-1.80;99.90
34574;DHT22;20809;49.594;8.734;2022-12-13T19:30:35;-1.70;99.90
34574;DHT22;20809;49.594;8.734;2022-12-13T19:33:36;-1.70;99.90
34574;DHT22;20809;49.594;8.734;2022-12-13T19:36:36;-1.80;99.90
34574;DHT22;20809;49.594;8.734;2022-12-13T19:39:37;-1.80;99.90
34574;DHT22;20809;49.594;8.734;2022-12-13T19:42:38;-1.80;99.90
34574;DHT22;20809;49.594;8.734;2022-12-13T19:45:43;-1.80;99.90
34574;DHT22;20809;49.594;8.734;2022-12-13T19:48:44;-1.80;99.90
34574;DHT22;20809;49.594;8.734;2022-12-13T19:51:44;-1.70;99.90
34574;DHT22;20809;49.594;8.734;2022-12-13T19:54:45;-1.70;99.90
34574;DHT22;20809;49.594;8.734;2022-12-13T19:57:46;-1.70;99.90
34574;DHT22;20809;49.594;8.734;2022-12-13T20:00:47;-1.70;99.90
34574;DHT22;20809;49.594;8.734;2022-12-13T20:03:48;-1.70;99.90
34574;DHT22;20809;49.594;8.734;2022-12-13T20:06:48;-1.70;99.90
34574;DHT22;20809;49.594;8.734;2022-12-13T20:09:49;-1.80;99.90
34574;DHT22;20809;49.594;8.734;2022-12-13T20:12:50;-1.70;99.90
34574;DHT22;20809;49.594;8.734;2022-12-13T20:15:50;-1.70;99.90
34574;DHT22;20809;49.594;8.734;2022-12-13T20:18:56;-1.70;99.90
34574;DHT22;20809;49.594;8.734;2022-12-13T20:21:57;-1.70;99.90
34574;DHT22;20809;49.594;8.734;2022-12-13T20:24:58;-1.60;99.90
34574;DHT22;20809;49.594;8.734;2022-12-13T20:27:59;-1.60;99.90
34574;DHT22;20809;49.594;8.734;2022-12-13T20:31:11;-1.60;99.90
34574;DHT22;20809;49.594;8.734;2022-12-13T20:34:12;-1.60;99.90
34574;DHT22;20809;49.594;8.734;2022-12-13T20:37:14;-1.70;99.90
34574;DHT22;20809;49.594;8.734;2022-12-13T20:40:14;-1.60;99.90
34574;DHT22;20809;49.594;8.734;2022-12-13T20:43:15;-1.60;99.90
34574;DHT22;20809;49.594;8.734;2022-12-13T20:46:16;-1.60;99.90
34574;DHT22;20809;49.594;8.734;2022-12-13T20:49:16;-1.50;99.90
34574;DHT22;20809;49.594;8.734;2022-12-13T20:52:17;-1.50;99.90
34574;DHT22;20809;49.594;8.734;2022-12-13T20:55:18;-1.60;99.90
34574;DHT22;20809;49.594;8.734;2022-12-13T20:58:20;-1.60;99.90
34574;DHT22;20809;49.594;8.734;2022-12-13T21:01:25;-1.50;99.90
34574;DHT22;20809;49.594;8.734;2022-12-13T21:04:26;-1.60;99.90
34574;DHT22;20809;49.594;8.734;2022-12-13T21:07:27;-1.60;99.90
34574;DHT22;20809;49.594;8.734;2022-12-13T21:10:46;-1.50;99.90
34574;DHT22;20809;49.594;8.734;2022-12-13T21:13:48;-1.50;99.90
34574;DHT22;20809;49.594;8.734;2022-12-13T21:16:51;-1.50;99.90
34574;DHT22;20809;49.594;8.734;2022-12-13T21:19:52;-1.50;99.90
34574;DHT22;20809;49.594;8.734;2022-12-13T21:22:53;-1.50;99.90
34574;DHT22;20809;49.594;8.734;2022-12-13T21:25:53;-1.50;99.90
34574;DHT22;20809;49.594;8.734;2022-12-13T21:28:59;-1.50;99.90
34574;DHT22;20809;49.594;8.734;2022-12-13T21:32:00;-1.50;99.90
34574;DHT22;20809;49.594;8.734;2022-12-13T21:35:01;-1.50;99.90
34574;DHT22;20809;49.594;8.734;2022-12-13T21:38:02;-1.50;99.90